sensor_id;sensor_type;location;lat;lon;timestamp;temperature;humidity
76537;DHT22;65381;51.254;15.592;2024-01-16T00:01:43;23.80;27.90
76537;DHT22;65381;51.254;15.592;2024-01-16T00:04:11;23.80;27.90
76537;DHT22;65381;51.254;15.592;2024-01-16T00:06:43;23.80;27.90
76537;DHT22;65381;51.254;15.592;2024-01-16T00:09:14;23.80;27.90
76537;DHT22;65381;51.254;15.592;2024-01-16T00:11:43;23.80;27.90
76537;DHT22;65381;51.254;15.592;2024-01-16T00:14:11;23.80;27.90
76537;DHT22;65381;51.254;15.592;2024-01-16T00:16:46;23.80;27.90
76537;DHT22;65381;51.254;15.592;2024-01-16T00:19:15;23.80;27.90
76537;DHT22;65381;51.254;15.592;2024-01-16T00:21:44;23.80;27.90
76537;DHT22;65381;51.254;15.592;2024-01-16T00:24:15;23.80;27.90
76537;DHT22;65381;51.254;15.592;2024-01-16T00:26:44;23.80;27.80
76537;DHT22;65381;51.254;15.592;2024-01-16T00:29:12;23.80;27.80
76537;DHT22;65381;51.254;15.592;2024-01-16T00:31:40;23.80;27.80
76537;DHT22;65381;51.254;15.592;2024-01-16T00:34:08;23.80;27.80
76537;DHT22;65381;51.254;15.592;2024-01-16T00:36:37;23.80;27.80
76537;DHT22;65381;51.254;15.592;2024-01-16T00:39:05;23.80;27.80
76537;DHT22;65381;51.254;15.592;2024-01-16T00:41:33;23.80;27.80
76537;DHT22;65381;51.254;15.592;2024-01-16T00:44:01;23.80;27.80
76537;DHT22;65381;51.254;15.592;2024-01-16T00:46:29;23.80;27.80
76537;DHT22;65381;51.254;15.592;2024-01-16T00:48:57;23.80;27.80
76537;DHT22;65381;51.254;15.592;2024-01-16T00:51:25;23.80;27.70
76537;DHT22;65381;51.254;15.592;2024-01-16T00:53:53;23.80;27.80
76537;DHT22;65381;51.254;15.592;2024-01-16T00:56:21;23.80;27.80
76537;DHT22;65381;51.254;15.592;2024-01-16T00:58:49;23.90;27.80
76537;DHT22;65381;51.254;15.592;2024-01-16T01:01:17;23.80;27.70
76537;DHT22;65381;51.254;15.592;2024-01-16T01:03:45;23.90;27.70
76537;DHT22;65381;51.254;15.592;2024-01-16T01:06:13;23.80;27.70
76537;DHT22;65381;51.254;15.592;2024-01-16T01:08:42;23.80;27.70
76537;DHT22;65381;51.254;15.592;2024-01-16T01:11:11;23.90;27.70
76537;DHT22;65381;51.254;15.592;2024-01-16T01:13:39;23.90;27.70
76537;DHT22;65381;51.254;15.592;2024-01-16T01:16:07;23.90;27.70
76537;DHT22;65381;51.254;15.592;2024-01-16T01:18:36;23.90;27.80
76537;DHT22;65381;51.254;15.592;2024-01-16T01:21:04;23.90;27.70
76537;DHT22;65381;51.254;15.592;2024-01-16T01:23:32;23.90;27.70
76537;DHT22;65381;51.254;15.592;2024-01-16T01:26:00;23.90;27.70
76537;DHT22;65381;51.254;15.592;2024-01-16T01:28:28;23.90;27.80
76537;DHT22;65381;51.254;15.592;2024-01-16T01:30:57;23.90;27.80
76537;DHT22;65381;51.254;15.592;2024-01-16T01:33:25;23.90;27.70
76537;DHT22;65381;51.254;15.592;2024-01-16T01:35:53;23.90;27.70
76537;DHT22;65381;51.254;15.592;2024-01-16T01:38:21;23.90;27.70
76537;DHT22;65381;51.254;15.592;2024-01-16T01:40:49;23.90;27.70
76537;DHT22;65381;51.254;15.592;2024-01-16T01:46:08;23.90;27.70
76537;DHT22;65381;51.254;15.592;2024-01-16T01:48:38;23.90;27.80
76537;DHT22;65381;51.254;15.592;2024-01-16T01:51:08;23.90;27.70
76537;DHT22;65381;51.254;15.592;2024-01-16T01:53:37;23.90;27.70
76537;DHT22;65381;51.254;15.592;2024-01-16T01:56:10;23.90;27.80
76537;DHT22;65381;51.254;15.592;2024-01-16T01:58:38;23.90;27.80
76537;DHT22;65381;51.254;15.592;2024-01-16T02:01:06;23.90;27.80
76537;DHT22;65381;51.254;15.592;2024-01-16T02:03:43;23.90;27.80
76537;DHT22;65381;51.254;15.592;2024-01-16T02:06:12;23.90;27.80
76537;DHT22;65381;51.254;15.592;2024-01-16T02:08:41;23.90;27.80
76537;DHT22;65381;51.254;15.592;2024-01-16T02:11:09;23.90;27.80
76537;DHT22;65381;51.254;15.592;2024-01-16T02:13:38;23.90;27.80
76537;DHT22;65381;51.254;15.592;2024-01-16T02:16:17;24.00;27.80
76537;DHT22;65381;51.254;15.592;2024-01-16T02:18:45;24.00;27.80
76537;DHT22;65381;51.254;15.592;2024-01-16T02:21:21;24.00;27.90
76537;DHT22;65381;51.254;15.592;2024-01-16T02:23:49;24.00;27.80
76537;DHT22;65381;51.254;15.592;2024-01-16T02:26:18;23.90;27.80
76537;DHT22;65381;51.254;15.592;2024-01-16T02:28:46;24.00;27.80
76537;DHT22;65381;51.254;15.592;2024-01-16T02:31:15;24.00;27.80
76537;DHT22;65381;51.254;15.592;2024-01-16T02:33:43;24.00;27.80
76537;DHT22;65381;51.254;15.592;2024-01-16T02:36:11;24.00;27.80
76537;DHT22;65381;51.254;15.592;2024-01-16T02:38:39;24.00;27.80
76537;DHT22;65381;51.254;15.592;2024-01-16T02:41:13;24.00;27.80
76537;DHT22;65381;51.254;15.592;2024-01-16T02:43:41;24.00;27.80
76537;DHT22;65381;51.254;15.592;2024-01-16T02:46:09;24.00;27.80
76537;DHT22;65381;51.254;15.592;2024-01-16T02:48:38;23.90;27.90
76537;DHT22;65381;51.254;15.592;2024-01-16T02:51:06;23.90;27.90
76537;DHT22;65381;51.254;15.592;2024-01-16T02:53:34;23.90;27.90
76537;DHT22;65381;51.254;15.592;2024-01-16T02:56:03;24.00;27.90
76537;DHT22;65381;51.254;15.592;2024-01-16T02:58:31;24.00;27.80
76537;DHT22;65381;51.254;15.592;2024-01-16T03:00:59;24.00;27.90
76537;DHT22;65381;51.254;15.592;2024-01-16T03:03:27;24.00;27.90
76537;DHT22;65381;51.254;15.592;2024-01-16T03:05:55;24.00;27.80
76537;DHT22;65381;51.254;15.592;2024-01-16T03:08:23;24.00;27.80
76537;DHT22;65381;51.254;15.592;2024-01-16T03:10:52;24.00;27.90
76537;DHT22;65381;51.254;15.592;2024-01-16T03:13:20;24.00;27.90
76537;DHT22;65381;51.254;15.592;2024-01-16T03:15:48;24.00;27.90
76537;DHT22;65381;51.254;15.592;2024-01-16T03:18:16;24.00;27.90
76537;DHT22;65381;51.254;15.592;2024-01-16T03:20:45;24.00;27.90
76537;DHT22;65381;51.254;15.592;2024-01-16T03:23:13;24.00;27.90
76537;DHT22;65381;51.254;15.592;2024-01-16T03:25:41;24.00;27.90
76537;DHT22;65381;51.254;15.592;2024-01-16T03:28:10;24.00;27.90
76537;DHT22;65381;51.254;15.592;2024-01-16T03:30:38;24.00;27.80
76537;DHT22;65381;51.254;15.592;2024-01-16T03:33:06;24.00;27.90
76537;DHT22;65381;51.254;15.592;2024-01-16T03:35:35;24.00;27.90
76537;DHT22;65381;51.254;15.592;2024-01-16T03:38:03;24.00;27.80
76537;DHT22;65381;51.254;15.592;2024-01-16T03:40:32;24.00;27.90
76537;DHT22;65381;51.254;15.592;2024-01-16T03:43:01;24.00;27.80
76537;DHT22;65381;51.254;15.592;2024-01-16T03:45:30;24.00;27.90
76537;DHT22;65381;51.254;15.592;2024-01-16T03:47:58;24.00;27.90
76537;DHT22;65381;51.254;15.592;2024-01-16T03:50:27;24.00;27.90
76537;DHT22;65381;51.254;15.592;2024-01-16T03:52:55;24.00;27.90
76537;DHT22;65381;51.254;15.592;2024-01-16T03:55:23;24.00;27.90
76537;DHT22;65381;51.254;15.592;2024-01-16T03:57:50;24.00;27.90
76537;DHT22;65381;51.254;15.592;2024-01-16T04:00:18;24.00;27.90
76537;DHT22;65381;51.254;15.592;2024-01-16T04:02:46;24.00;27.90
76537;DHT22;65381;51.254;15.592;2024-01-16T04:05:15;24.00;28.00
76537;DHT22;65381;51.254;15.592;2024-01-16T04:07:43;24.00;28.00
76537;DHT22;65381;51.254;15.592;2024-01-16T04:10:11;24.00;28.00
76537;DHT22;65381;51.254;15.592;2024-01-16T04:12:39;24.00;27.90
76537;DHT22;65381;51.254;15.592;2024-01-16T04:15:07;24.00;27.90
76537;DHT22;65381;51.254;15.592;2024-01-16T04:17:35;24.00;27.90
76537;DHT22;65381;51.254;15.592;2024-01-16T04:20:04;24.00;27.90
76537;DHT22;65381;51.254;15.592;2024-01-16T04:22:34;24.00;27.90
76537;DHT22;65381;51.254;15.592;2024-01-16T04:25:03;24.00;27.90
76537;DHT22;65381;51.254;15.592;2024-01-16T04:27:32;24.00;28.00
76537;DHT22;65381;51.254;15.592;2024-01-16T04:30:00;24.00;28.00
76537;DHT22;65381;51.254;15.592;2024-01-16T04:32:28;24.00;27.90
76537;DHT22;65381;51.254;15.592;2024-01-16T04:34:57;24.00;27.90
76537;DHT22;65381;51.254;15.592;2024-01-16T04:37:25;24.00;27.90
76537;DHT22;65381;51.254;15.592;2024-01-16T04:39:53;24.00;27.90
76537;DHT22;65381;51.254;15.592;2024-01-16T04:42:21;24.00;27.90
76537;DHT22;65381;51.254;15.592;2024-01-16T04:44:49;24.00;27.90
76537;DHT22;65381;51.254;15.592;2024-01-16T04:47:17;24.00;27.90
76537;DHT22;65381;51.254;15.592;2024-01-16T04:49:46;24.00;27.90
76537;DHT22;65381;51.254;15.592;2024-01-16T04:52:14;24.00;27.90
76537;DHT22;65381;51.254;15.592;2024-01-16T04:54:43;24.00;27.80
76537;DHT22;65381;51.254;15.592;2024-01-16T04:57:13;24.00;27.90
76537;DHT22;65381;51.254;15.592;2024-01-16T04:59:41;24.00;27.90
76537;DHT22;65381;51.254;15.592;2024-01-16T05:02:10;24.00;27.90
76537;DHT22;65381;51.254;15.592;2024-01-16T05:04:38;24.00;27.90
76537;DHT22;65381;51.254;15.592;2024-01-16T05:07:06;24.00;27.90
76537;DHT22;65381;51.254;15.592;2024-01-16T05:09:34;24.00;27.90
76537;DHT22;65381;51.254;15.592;2024-01-16T05:12:02;24.00;27.80
76537;DHT22;65381;51.254;15.592;2024-01-16T05:14:31;24.00;27.90
76537;DHT22;65381;51.254;15.592;2024-01-16T05:16:59;24.00;27.80
76537;DHT22;65381;51.254;15.592;2024-01-16T05:19:27;24.00;27.80
76537;DHT22;65381;51.254;15.592;2024-01-16T05:21:56;24.10;27.80
76537;DHT22;65381;51.254;15.592;2024-01-16T05:24:24;24.10;27.90
76537;DHT22;65381;51.254;15.592;2024-01-16T05:26:52;24.10;27.90
76537;DHT22;65381;51.254;15.592;2024-01-16T05:29:20;24.10;27.80
76537;DHT22;65381;51.254;15.592;2024-01-16T05:31:49;24.10;27.90
76537;DHT22;65381;51.254;15.592;2024-01-16T05:34:17;24.10;27.80
76537;DHT22;65381;51.254;15.592;2024-01-16T05:36:45;24.10;27.90
76537;DHT22;65381;51.254;15.592;2024-01-16T05:39:14;24.10;27.80
76537;DHT22;65381;51.254;15.592;2024-01-16T05:41:42;24.10;27.90
76537;DHT22;65381;51.254;15.592;2024-01-16T05:44:10;24.10;27.90
76537;DHT22;65381;51.254;15.592;2024-01-16T05:46:38;24.10;27.90
76537;DHT22;65381;51.254;15.592;2024-01-16T05:49:06;24.10;27.80
76537;DHT22;65381;51.254;15.592;2024-01-16T05:51:35;24.10;27.80
76537;DHT22;65381;51.254;15.592;2024-01-16T05:54:04;24.10;27.80
76537;DHT22;65381;51.254;15.592;2024-01-16T05:56:32;24.10;27.80
76537;DHT22;65381;51.254;15.592;2024-01-16T05:59:02;24.10;27.70
76537;DHT22;65381;51.254;15.592;2024-01-16T06:01:30;24.10;27.70
76537;DHT22;65381;51.254;15.592;2024-01-16T06:03:59;24.10;27.70
76537;DHT22;65381;51.254;15.592;2024-01-16T06:06:27;24.10;27.70
76537;DHT22;65381;51.254;15.592;2024-01-16T06:08:56;24.10;27.70
76537;DHT22;65381;51.254;15.592;2024-01-16T06:11:33;24.10;27.60
76537;DHT22;65381;51.254;15.592;2024-01-16T06:14:02;24.10;27.60
76537;DHT22;65381;51.254;15.592;2024-01-16T06:16:30;24.00;27.60
76537;DHT22;65381;51.254;15.592;2024-01-16T06:18:58;24.00;27.60
76537;DHT22;65381;51.254;15.592;2024-01-16T06:21:26;24.10;27.60
76537;DHT22;65381;51.254;15.592;2024-01-16T06:23:55;24.10;27.60
76537;DHT22;65381;51.254;15.592;2024-01-16T06:26:23;24.00;27.60
76537;DHT22;65381;51.254;15.592;2024-01-16T06:28:51;24.10;27.60
76537;DHT22;65381;51.254;15.592;2024-01-16T06:31:19;24.00;27.50
76537;DHT22;65381;51.254;15.592;2024-01-16T06:33:48;24.00;27.50
76537;DHT22;65381;51.254;15.592;2024-01-16T06:36:16;24.00;27.50
76537;DHT22;65381;51.254;15.592;2024-01-16T06:38:44;24.00;27.50
76537;DHT22;65381;51.254;15.592;2024-01-16T06:41:12;24.00;27.50
76537;DHT22;65381;51.254;15.592;2024-01-16T06:43:40;24.00;27.50
76537;DHT22;65381;51.254;15.592;2024-01-16T06:46:08;24.10;27.50
76537;DHT22;65381;51.254;15.592;2024-01-16T06:48:37;24.00;27.50
76537;DHT22;65381;51.254;15.592;2024-01-16T06:51:06;24.00;27.50
76537;DHT22;65381;51.254;15.592;2024-01-16T06:53:35;24.00;27.40
76537;DHT22;65381;51.254;15.592;2024-01-16T06:56:06;24.00;27.50
76537;DHT22;65381;51.254;15.592;2024-01-16T06:58:35;24.10;27.50
76537;DHT22;65381;51.254;15.592;2024-01-16T07:01:03;24.00;27.40
76537;DHT22;65381;51.254;15.592;2024-01-16T07:03:58;24.00;27.40
76537;DHT22;65381;51.254;15.592;2024-01-16T07:06:26;24.00;27.40
76537;DHT22;65381;51.254;15.592;2024-01-16T07:08:54;24.00;27.40
76537;DHT22;65381;51.254;15.592;2024-01-16T07:11:22;24.00;27.40
76537;DHT22;65381;51.254;15.592;2024-01-16T07:13:51;24.00;27.40
76537;DHT22;65381;51.254;15.592;2024-01-16T07:16:19;24.00;27.50
76537;DHT22;65381;51.254;15.592;2024-01-16T07:18:47;24.00;27.50
76537;DHT22;65381;51.254;15.592;2024-01-16T07:21:18;24.10;27.50
76537;DHT22;65381;51.254;15.592;2024-01-16T07:23:47;24.10;27.50
76537;DHT22;65381;51.254;15.592;2024-01-16T07:26:16;24.10;27.50
76537;DHT22;65381;51.254;15.592;2024-01-16T07:28:44;24.10;27.50
76537;DHT22;65381;51.254;15.592;2024-01-16T07:31:12;24.10;27.50
76537;DHT22;65381;51.254;15.592;2024-01-16T07:33:40;24.10;27.50
76537;DHT22;65381;51.254;15.592;2024-01-16T07:36:09;24.10;27.50
76537;DHT22;65381;51.254;15.592;2024-01-16T07:38:37;24.10;27.50
76537;DHT22;65381;51.254;15.592;2024-01-16T07:41:06;24.20;27.50
76537;DHT22;65381;51.254;15.592;2024-01-16T07:43:34;24.10;27.50
76537;DHT22;65381;51.254;15.592;2024-01-16T07:46:02;24.20;27.50
76537;DHT22;65381;51.254;15.592;2024-01-16T07:48:31;24.20;27.50
76537;DHT22;65381;51.254;15.592;2024-01-16T07:50:59;24.20;27.50
76537;DHT22;65381;51.254;15.592;2024-01-16T07:53:27;24.20;27.50
76537;DHT22;65381;51.254;15.592;2024-01-16T07:55:55;24.20;27.40
76537;DHT22;65381;51.254;15.592;2024-01-16T07:58:23;24.20;27.40
76537;DHT22;65381;51.254;15.592;2024-01-16T08:00:51;24.20;27.40
76537;DHT22;65381;51.254;15.592;2024-01-16T08:03:20;24.20;27.40
76537;DHT22;65381;51.254;15.592;2024-01-16T08:05:48;24.20;27.40
76537;DHT22;65381;51.254;15.592;2024-01-16T08:08:16;24.20;27.40
76537;DHT22;65381;51.254;15.592;2024-01-16T08:10:44;24.20;27.40
76537;DHT22;65381;51.254;15.592;2024-01-16T08:13:12;24.20;27.40
76537;DHT22;65381;51.254;15.592;2024-01-16T08:15:40;24.20;27.40
76537;DHT22;65381;51.254;15.592;2024-01-16T08:18:09;24.20;27.40
76537;DHT22;65381;51.254;15.592;2024-01-16T08:20:37;24.20;27.30
76537;DHT22;65381;51.254;15.592;2024-01-16T08:23:05;24.20;27.40
76537;DHT22;65381;51.254;15.592;2024-01-16T08:25:33;24.20;27.30
76537;DHT22;65381;51.254;15.592;2024-01-16T08:28:01;24.20;27.40
76537;DHT22;65381;51.254;15.592;2024-01-16T08:30:29;24.20;27.40
76537;DHT22;65381;51.254;15.592;2024-01-16T08:32:57;24.20;27.40
76537;DHT22;65381;51.254;15.592;2024-01-16T08:35:25;24.20;27.40
76537;DHT22;65381;51.254;15.592;2024-01-16T08:37:54;24.20;27.30
76537;DHT22;65381;51.254;15.592;2024-01-16T08:40:22;24.20;27.40
76537;DHT22;65381;51.254;15.592;2024-01-16T08:42:51;24.30;27.30
76537;DHT22;65381;51.254;15.592;2024-01-16T08:45:24;24.30;27.30
76537;DHT22;65381;51.254;15.592;2024-01-16T08:47:54;24.30;27.30
76537;DHT22;65381;51.254;15.592;2024-01-16T08:50:22;24.40;27.30
76537;DHT22;65381;51.254;15.592;2024-01-16T08:52:51;24.30;27.30
76537;DHT22;65381;51.254;15.592;2024-01-16T08:55:19;24.30;27.30
76537;DHT22;65381;51.254;15.592;2024-01-16T08:57:48;24.40;27.30
76537;DHT22;65381;51.254;15.592;2024-01-16T09:00:16;24.40;27.30
76537;DHT22;65381;51.254;15.592;2024-01-16T09:02:44;24.40;27.30
76537;DHT22;65381;51.254;15.592;2024-01-16T09:05:12;24.40;27.40
76537;DHT22;65381;51.254;15.592;2024-01-16T09:07:42;24.40;27.30
76537;DHT22;65381;51.254;15.592;2024-01-16T09:10:10;24.30;27.30
76537;DHT22;65381;51.254;15.592;2024-01-16T09:12:39;24.40;27.40
76537;DHT22;65381;51.254;15.592;2024-01-16T09:15:07;24.40;27.40
76537;DHT22;65381;51.254;15.592;2024-01-16T09:17:35;24.40;27.30
76537;DHT22;65381;51.254;15.592;2024-01-16T09:20:04;24.40;27.40
76537;DHT22;65381;51.254;15.592;2024-01-16T09:22:32;24.40;27.30
76537;DHT22;65381;51.254;15.592;2024-01-16T09:25:00;24.40;27.30
76537;DHT22;65381;51.254;15.592;2024-01-16T09:27:29;24.40;27.50
76537;DHT22;65381;51.254;15.592;2024-01-16T09:29:57;24.40;27.60
76537;DHT22;65381;51.254;15.592;2024-01-16T09:32:25;24.40;27.60
76537;DHT22;65381;51.254;15.592;2024-01-16T09:34:53;24.40;27.60
76537;DHT22;65381;51.254;15.592;2024-01-16T09:37:21;24.40;27.60
76537;DHT22;65381;51.254;15.592;2024-01-16T09:39:49;24.40;27.60
76537;DHT22;65381;51.254;15.592;2024-01-16T09:42:19;24.40;27.70
76537;DHT22;65381;51.254;15.592;2024-01-16T09:44:48;24.40;27.60
76537;DHT22;65381;51.254;15.592;2024-01-16T09:47:18;24.40;27.60
76537;DHT22;65381;51.254;15.592;2024-01-16T09:49:46;24.40;27.60
76537;DHT22;65381;51.254;15.592;2024-01-16T09:52:16;24.40;27.60
76537;DHT22;65381;51.254;15.592;2024-01-16T09:54:44;24.40;27.60
76537;DHT22;65381;51.254;15.592;2024-01-16T09:57:13;24.40;27.50
76537;DHT22;65381;51.254;15.592;2024-01-16T09:59:43;24.40;27.50
76537;DHT22;65381;51.254;15.592;2024-01-16T10:02:12;24.50;27.50
76537;DHT22;65381;51.254;15.592;2024-01-16T10:04:42;24.40;27.50
76537;DHT22;65381;51.254;15.592;2024-01-16T10:07:12;24.50;27.50
76537;DHT22;65381;51.254;15.592;2024-01-16T10:09:43;24.50;27.50
76537;DHT22;65381;51.254;15.592;2024-01-16T10:12:12;24.50;27.50
76537;DHT22;65381;51.254;15.592;2024-01-16T10:14:41;24.50;27.50
76537;DHT22;65381;51.254;15.592;2024-01-16T10:17:11;24.50;27.40
76537;DHT22;65381;51.254;15.592;2024-01-16T10:19:51;24.50;27.40
76537;DHT22;65381;51.254;15.592;2024-01-16T10:22:22;24.50;27.40
76537;DHT22;65381;51.254;15.592;2024-01-16T10:25:10;24.60;27.40
76537;DHT22;65381;51.254;15.592;2024-01-16T10:27:40;24.60;27.40
76537;DHT22;65381;51.254;15.592;2024-01-16T10:30:08;24.50;27.40
76537;DHT22;65381;51.254;15.592;2024-01-16T10:32:42;24.60;27.40
76537;DHT22;65381;51.254;15.592;2024-01-16T10:35:12;24.60;27.40
76537;DHT22;65381;51.254;15.592;2024-01-16T10:37:49;24.60;27.40
76537;DHT22;65381;51.254;15.592;2024-01-16T10:40:22;24.60;27.30
76537;DHT22;65381;51.254;15.592;2024-01-16T10:43:05;24.60;27.30
76537;DHT22;65381;51.254;15.592;2024-01-16T10:45:33;24.60;27.30
76537;DHT22;65381;51.254;15.592;2024-01-16T10:48:04;24.70;27.30
76537;DHT22;65381;51.254;15.592;2024-01-16T10:50:33;24.70;27.20
76537;DHT22;65381;51.254;15.592;2024-01-16T10:53:06;24.70;27.20
76537;DHT22;65381;51.254;15.592;2024-01-16T10:55:51;24.70;27.20
76537;DHT22;65381;51.254;15.592;2024-01-16T10:58:24;24.70;27.20
76537;DHT22;65381;51.254;15.592;2024-01-16T11:00:53;24.70;27.20
76537;DHT22;65381;51.254;15.592;2024-01-16T11:06:00;24.80;27.20
76537;DHT22;65381;51.254;15.592;2024-01-16T11:08:29;24.80;27.20
76537;DHT22;65381;51.254;15.592;2024-01-16T11:11:00;24.80;27.20
76537;DHT22;65381;51.254;15.592;2024-01-16T11:13:34;24.80;27.20
76537;DHT22;65381;51.254;15.592;2024-01-16T11:16:03;24.80;27.20
76537;DHT22;65381;51.254;15.592;2024-01-16T11:18:34;24.80;27.20
76537;DHT22;65381;51.254;15.592;2024-01-16T11:21:07;24.70;27.10
76537;DHT22;65381;51.254;15.592;2024-01-16T11:23:41;24.80;27.10
76537;DHT22;65381;51.254;15.592;2024-01-16T11:26:30;24.70;27.20
76537;DHT22;65381;51.254;15.592;2024-01-16T11:31:56;24.70;27.20
76537;DHT22;65381;51.254;15.592;2024-01-16T11:37:13;24.70;27.20
76537;DHT22;65381;51.254;15.592;2024-01-16T11:39:41;24.70;27.10
76537;DHT22;65381;51.254;15.592;2024-01-16T11:42:09;24.70;27.10
76537;DHT22;65381;51.254;15.592;2024-01-16T11:44:47;24.70;27.10
76537;DHT22;65381;51.254;15.592;2024-01-16T11:47:17;24.70;27.30
76537;DHT22;65381;51.254;15.592;2024-01-16T11:49:47;24.70;27.40
76537;DHT22;65381;51.254;15.592;2024-01-16T11:52:15;24.70;27.40
76537;DHT22;65381;51.254;15.592;2024-01-16T11:55:27;24.70;27.40
76537;DHT22;65381;51.254;15.592;2024-01-16T11:58:35;24.70;27.40
76537;DHT22;65381;51.254;15.592;2024-01-16T12:01:08;24.70;27.40
76537;DHT22;65381;51.254;15.592;2024-01-16T12:03:39;24.60;27.40
76537;DHT22;65381;51.254;15.592;2024-01-16T12:06:08;24.60;27.50
76537;DHT22;65381;51.254;15.592;2024-01-16T12:08:37;24.70;27.40
76537;DHT22;65381;51.254;15.592;2024-01-16T12:11:05;24.60;27.40
76537;DHT22;65381;51.254;15.592;2024-01-16T12:13:33;24.60;27.40
76537;DHT22;65381;51.254;15.592;2024-01-16T12:16:02;24.60;27.40
76537;DHT22;65381;51.254;15.592;2024-01-16T12:18:34;24.60;27.40
76537;DHT22;65381;51.254;15.592;2024-01-16T12:21:12;24.60;27.40
76537;DHT22;65381;51.254;15.592;2024-01-16T12:23:41;24.60;27.40
76537;DHT22;65381;51.254;15.592;2024-01-16T12:26:22;24.60;27.30
76537;DHT22;65381;51.254;15.592;2024-01-16T12:28:54;24.60;27.30
76537;DHT22;65381;51.254;15.592;2024-01-16T12:31:27;24.60;27.30
76537;DHT22;65381;51.254;15.592;2024-01-16T12:34:08;24.60;27.30
76537;DHT22;65381;51.254;15.592;2024-01-16T12:36:38;24.60;27.30
76537;DHT22;65381;51.254;15.592;2024-01-16T12:39:06;24.60;27.30
76537;DHT22;65381;51.254;15.592;2024-01-16T12:41:42;24.60;27.30
76537;DHT22;65381;51.254;15.592;2024-01-16T12:44:13;24.60;27.30
76537;DHT22;65381;51.254;15.592;2024-01-16T12:46:54;24.60;27.30
76537;DHT22;65381;51.254;15.592;2024-01-16T12:49:23;24.70;27.20
76537;DHT22;65381;51.254;15.592;2024-01-16T12:52:18;24.70;27.20
76537;DHT22;65381;51.254;15.592;2024-01-16T12:54:56;24.80;27.20
76537;DHT22;65381;51.254;15.592;2024-01-16T12:57:26;24.70;27.20
76537;DHT22;65381;51.254;15.592;2024-01-16T12:59:54;24.80;27.20
76537;DHT22;65381;51.254;15.592;2024-01-16T13:02:25;24.80;27.20
76537;DHT22;65381;51.254;15.592;2024-01-16T13:05:00;24.80;27.20
76537;DHT22;65381;51.254;15.592;2024-01-16T13:07:31;24.90;27.10
76537;DHT22;65381;51.254;15.592;2024-01-16T13:10:11;24.90;27.10
76537;DHT22;65381;51.254;15.592;2024-01-16T13:12:40;25.00;27.10
76537;DHT22;65381;51.254;15.592;2024-01-16T13:15:08;24.90;27.10
76537;DHT22;65381;51.254;15.592;2024-01-16T13:17:39;24.90;27.10
76537;DHT22;65381;51.254;15.592;2024-01-16T13:20:07;24.90;27.10
76537;DHT22;65381;51.254;15.592;2024-01-16T13:22:37;24.90;27.10
76537;DHT22;65381;51.254;15.592;2024-01-16T13:25:14;24.80;27.10
76537;DHT22;65381;51.254;15.592;2024-01-16T13:27:42;24.80;27.20
76537;DHT22;65381;51.254;15.592;2024-01-16T13:30:11;24.80;27.10
76537;DHT22;65381;51.254;15.592;2024-01-16T13:32:40;24.80;27.10
76537;DHT22;65381;51.254;15.592;2024-01-16T13:35:08;24.80;27.10
76537;DHT22;65381;51.254;15.592;2024-01-16T13:37:37;24.80;27.00
76537;DHT22;65381;51.254;15.592;2024-01-16T13:40:06;24.80;27.00
76537;DHT22;65381;51.254;15.592;2024-01-16T13:42:43;24.80;27.00
76537;DHT22;65381;51.254;15.592;2024-01-16T13:45:11;24.80;27.00
76537;DHT22;65381;51.254;15.592;2024-01-16T13:47:42;24.80;27.00
76537;DHT22;65381;51.254;15.592;2024-01-16T13:50:10;24.80;27.00
76537;DHT22;65381;51.254;15.592;2024-01-16T13:52:38;24.80;27.00
76537;DHT22;65381;51.254;15.592;2024-01-16T13:55:08;24.80;27.00
76537;DHT22;65381;51.254;15.592;2024-01-16T13:57:37;24.80;26.90
76537;DHT22;65381;51.254;15.592;2024-01-16T14:00:07;24.70;26.90
76537;DHT22;65381;51.254;15.592;2024-01-16T14:02:38;24.70;26.90
76537;DHT22;65381;51.254;15.592;2024-01-16T14:05:09;24.70;26.90
76537;DHT22;65381;51.254;15.592;2024-01-16T14:07:49;24.70;26.90
76537;DHT22;65381;51.254;15.592;2024-01-16T14:10:21;24.70;26.90
76537;DHT22;65381;51.254;15.592;2024-01-16T14:12:50;24.70;26.90
76537;DHT22;65381;51.254;15.592;2024-01-16T14:15:21;24.60;26.90
76537;DHT22;65381;51.254;15.592;2024-01-16T14:17:53;24.60;26.90
76537;DHT22;65381;51.254;15.592;2024-01-16T14:20:24;24.60;26.90
76537;DHT22;65381;51.254;15.592;2024-01-16T14:22:56;24.60;26.90
76537;DHT22;65381;51.254;15.592;2024-01-16T14:25:24;24.60;26.90
76537;DHT22;65381;51.254;15.592;2024-01-16T14:27:56;24.60;26.90
76537;DHT22;65381;51.254;15.592;2024-01-16T14:30:27;24.60;26.80
76537;DHT22;65381;51.254;15.592;2024-01-16T14:32:56;24.60;26.90
76537;DHT22;65381;51.254;15.592;2024-01-16T14:35:27;24.60;26.80
76537;DHT22;65381;51.254;15.592;2024-01-16T14:37:55;24.60;26.90
76537;DHT22;65381;51.254;15.592;2024-01-16T14:40:24;24.60;26.80
76537;DHT22;65381;51.254;15.592;2024-01-16T14:42:55;24.60;26.80
76537;DHT22;65381;51.254;15.592;2024-01-16T14:45:27;24.50;26.80
76537;DHT22;65381;51.254;15.592;2024-01-16T14:47:55;24.50;26.80
76537;DHT22;65381;51.254;15.592;2024-01-16T14:50:24;24.50;26.80
76537;DHT22;65381;51.254;15.592;2024-01-16T14:52:53;24.50;26.80
76537;DHT22;65381;51.254;15.592;2024-01-16T14:55:21;24.50;26.80
76537;DHT22;65381;51.254;15.592;2024-01-16T14:57:50;24.50;26.80
76537;DHT22;65381;51.254;15.592;2024-01-16T15:00:28;24.50;26.80
76537;DHT22;65381;51.254;15.592;2024-01-16T15:02:56;24.40;26.80
76537;DHT22;65381;51.254;15.592;2024-01-16T15:05:25;24.50;26.70
76537;DHT22;65381;51.254;15.592;2024-01-16T15:07:53;24.40;26.80
76537;DHT22;65381;51.254;15.592;2024-01-16T15:10:21;24.40;26.70
76537;DHT22;65381;51.254;15.592;2024-01-16T15:12:50;24.40;26.70
76537;DHT22;65381;51.254;15.592;2024-01-16T15:15:18;24.40;26.70
76537;DHT22;65381;51.254;15.592;2024-01-16T15:17:46;24.40;26.70
76537;DHT22;65381;51.254;15.592;2024-01-16T15:20:17;24.40;26.70
76537;DHT22;65381;51.254;15.592;2024-01-16T15:22:46;24.40;26.70
76537;DHT22;65381;51.254;15.592;2024-01-16T15:25:14;24.40;26.70
76537;DHT22;65381;51.254;15.592;2024-01-16T15:27:44;24.40;26.70
76537;DHT22;65381;51.254;15.592;2024-01-16T15:30:14;24.40;26.70
76537;DHT22;65381;51.254;15.592;2024-01-16T15:32:42;24.40;26.70
76537;DHT22;65381;51.254;15.592;2024-01-16T15:35:10;24.40;26.70
76537;DHT22;65381;51.254;15.592;2024-01-16T15:37:39;24.40;26.70
76537;DHT22;65381;51.254;15.592;2024-01-16T15:40:08;24.40;26.60
76537;DHT22;65381;51.254;15.592;2024-01-16T15:42:36;24.40;26.60